Airfield :
LOGIN :

Register | Disclaimer

   EN    FR    IT 

 










Legend :    VFR   Marginal VFR   IFR   Intensive IFR   Very Intensive IFR
Visi :
Ceiling :
>= 8 km
>= 3000ft
5 to 8 km
1000 to 3000 ft
1500m to 5 km
500 to 1000 ft
800 to 1500m
200 to 500 ft
< 800m
< 200 ft
Symbols :   Thunderstorms  Fog  Heavy snow  Heavy precipitations  Wind > 20 kt
SIGMETs :     Misc.  Thunderstorms  Icing  Turbulence  Mountain Waves  Volcanic Ashes







- Airport Elevation : 121 ft
- IATA code : HUY
- Download approach charts


EGNJ - Humberside

CURRENT METAR :
  • 251420Z 17014KT 9999 VCSH FEW021 SCT025CB 15/09 Q0999

EXPIRED METARs :
  • 251350Z 17009KT 120V190 9999 FEW021 SCT025CB 13/10 Q0999
  • 251320Z 15004KT 9999 6000NE -SHRA FEW021 SCT025CB 10/09 Q0999 RETS RESHRA
  • 251250Z 13012KT 9000 VCTS VCSH FEW016 SCT023CB BKN049 14/10 Q0998
  • 251220Z 13012KT 9999 FEW016 SCT021 BKN048 14/10 Q0998
  • 251150Z 12011KT 9999 SCT014 BKN020 14/11 Q0998

TAF TAF EGNJ
Valid from the 25 at 15:00 until the 26 at 00:00 UTC


251405Z 2515/2524 17009KT 9999 SCT020
TEMPO 2515/2519 6000 SHRA
PROB30
TEMPO 2515/2517 18015G25KT 4000 +SHRA TSGR BKN014 BKN025CB
ATIS : +44 1652 682 020
No reported NOTAMs for that airfield.
2 SIGMETs reported for the London FIR (EGTT) :
 
Frequent thunderstorms
EGTT SIGMET 03 VALID 251410/251600 EGRR
EGTT LONDON FIR FRQ TS FCST WI N5310 W00100 - N5249 W00049 - N5243 W00303 - N5333 W00311 - N5310 W00100 TOP FL270 MOV N 15KT NC=
Embedded thunderstorms
EGTT SIGMET 02 VALID 251410/251700 EGRR
EGTT LONDON FIR EMBD TS FCST WI N5429 W00033 - N5325 E00024 - N5404 W00301 - N5438 W00309 - N5429 W00033 TOP FL270 MOV N 15KT NC=



MET'MAP, your aeronautical weather chart ! - Copyright ORBIFLY December 2007 - Disclaimer

ORBIFLY MET'MAP TEAM :

Programming & Development : Alexandra Zaïnal
Concept & Development : Baudouin d'Aumeries
Co-Development & Prog : Marc-Olivier Méhu
Technical & hardware support : Manuel Goepfert

Contact : metmap@orbifly.com




SOURCES & CREDITS :

   NOAA